sensor_id;sensor_type;location;lat;lon;timestamp;P1;durP1;ratioP1;P2;durP2;ratioP2
6392;SDS011;3229;42.674;23.282;2023-04-24T00:02:13;7.63;;;6.40;;
6392;SDS011;3229;42.674;23.282;2023-04-24T00:04:40;7.20;;;6.43;;
6392;SDS011;3229;42.674;23.282;2023-04-24T00:07:12;9.77;;;6.40;;
6392;SDS011;3229;42.674;23.282;2023-04-24T00:09:39;7.80;;;6.37;;
6392;SDS011;3229;42.674;23.282;2023-04-24T00:12:06;6.93;;;5.63;;
6392;SDS011;3229;42.674;23.282;2023-04-24T00:14:33;5.90;;;5.40;;
6392;SDS011;3229;42.674;23.282;2023-04-24T00:17:00;6.13;;;5.53;;
6392;SDS011;3229;42.674;23.282;2023-04-24T00:19:27;7.27;;;6.27;;
6392;SDS011;3229;42.674;23.282;2023-04-24T00:21:54;9.60;;;5.63;;
6392;SDS011;3229;42.674;23.282;2023-04-24T00:24:22;8.87;;;6.27;;
6392;SDS011;3229;42.674;23.282;2023-04-24T00:26:49;6.70;;;5.50;;
6392;SDS011;3229;42.674;23.282;2023-04-24T00:29:16;9.07;;;6.33;;
6392;SDS011;3229;42.674;23.282;2023-04-24T00:31:42;7.30;;;5.67;;
6392;SDS011;3229;42.674;23.282;2023-04-24T00:34:09;5.83;;;5.30;;
6392;SDS011;3229;42.674;23.282;2023-04-24T00:36:36;6.40;;;5.60;;
6392;SDS011;3229;42.674;23.282;2023-04-24T00:39:03;6.33;;;5.37;;
6392;SDS011;3229;42.674;23.282;2023-04-24T00:41:31;6.70;;;5.77;;
6392;SDS011;3229;42.674;23.282;2023-04-24T00:43:58;7.27;;;6.27;;
6392;SDS011;3229;42.674;23.282;2023-04-24T00:46:25;7.47;;;5.90;;
6392;SDS011;3229;42.674;23.282;2023-04-24T00:48:52;9.17;;;6.20;;
6392;SDS011;3229;42.674;23.282;2023-04-24T00:51:19;7.67;;;5.40;;
6392;SDS011;3229;42.674;23.282;2023-04-24T00:53:46;6.57;;;5.33;;
6392;SDS011;3229;42.674;23.282;2023-04-24T00:56:12;7.33;;;5.57;;
6392;SDS011;3229;42.674;23.282;2023-04-24T00:58:41;9.40;;;5.93;;
6392;SDS011;3229;42.674;23.282;2023-04-24T01:01:08;9.23;;;5.87;;
6392;SDS011;3229;42.674;23.282;2023-04-24T01:03:36;7.17;;;6.47;;
6392;SDS011;3229;42.674;23.282;2023-04-24T01:06:04;8.13;;;6.10;;
6392;SDS011;3229;42.674;23.282;2023-04-24T01:08:31;7.50;;;6.07;;
6392;SDS011;3229;42.674;23.282;2023-04-24T01:10:59;9.63;;;6.33;;
6392;SDS011;3229;42.674;23.282;2023-04-24T01:13:29;6.70;;;5.93;;
6392;SDS011;3229;42.674;23.282;2023-04-24T01:15:58;8.97;;;6.47;;
6392;SDS011;3229;42.674;23.282;2023-04-24T01:18:25;6.43;;;5.80;;
6392;SDS011;3229;42.674;23.282;2023-04-24T01:20:53;6.17;;;5.57;;
6392;SDS011;3229;42.674;23.282;2023-04-24T01:23:23;7.20;;;6.33;;
6392;SDS011;3229;42.674;23.282;2023-04-24T01:25:50;6.90;;;6.20;;
6392;SDS011;3229;42.674;23.282;2023-04-24T01:28:17;10.37;;;6.40;;
6392;SDS011;3229;42.674;23.282;2023-04-24T01:30:44;13.30;;;5.73;;
6392;SDS011;3229;42.674;23.282;2023-04-24T01:33:11;8.70;;;5.97;;
6392;SDS011;3229;42.674;23.282;2023-04-24T01:35:38;9.10;;;5.97;;
6392;SDS011;3229;42.674;23.282;2023-04-24T01:38:06;6.27;;;5.63;;
6392;SDS011;3229;42.674;23.282;2023-04-24T01:40:34;7.47;;;5.90;;
6392;SDS011;3229;42.674;23.282;2023-04-24T01:43:01;6.77;;;5.73;;
6392;SDS011;3229;42.674;23.282;2023-04-24T01:45:28;6.60;;;5.57;;
6392;SDS011;3229;42.674;23.282;2023-04-24T01:47:55;7.90;;;5.90;;
6392;SDS011;3229;42.674;23.282;2023-04-24T01:50:22;5.93;;;5.27;;
6392;SDS011;3229;42.674;23.282;2023-04-24T01:52:49;7.00;;;5.53;;
6392;SDS011;3229;42.674;23.282;2023-04-24T01:55:16;6.33;;;5.23;;
6392;SDS011;3229;42.674;23.282;2023-04-24T01:57:44;7.07;;;5.23;;
6392;SDS011;3229;42.674;23.282;2023-04-24T02:00:11;7.67;;;5.50;;
6392;SDS011;3229;42.674;23.282;2023-04-24T02:02:39;4.77;;;4.27;;
6392;SDS011;3229;42.674;23.282;2023-04-24T02:05:06;6.40;;;4.80;;
6392;SDS011;3229;42.674;23.282;2023-04-24T02:07:33;4.83;;;4.07;;
6392;SDS011;3229;42.674;23.282;2023-04-24T02:10:00;5.33;;;4.83;;
6392;SDS011;3229;42.674;23.282;2023-04-24T02:12:27;6.90;;;4.70;;
6392;SDS011;3229;42.674;23.282;2023-04-24T02:14:55;7.33;;;5.13;;
6392;SDS011;3229;42.674;23.282;2023-04-24T02:17:22;6.47;;;5.43;;
6392;SDS011;3229;42.674;23.282;2023-04-24T02:19:49;5.43;;;4.80;;
6392;SDS011;3229;42.674;23.282;2023-04-24T02:22:15;5.60;;;4.67;;
6392;SDS011;3229;42.674;23.282;2023-04-24T02:24:42;8.47;;;5.07;;
6392;SDS011;3229;42.674;23.282;2023-04-24T02:27:09;8.03;;;4.77;;
6392;SDS011;3229;42.674;23.282;2023-04-24T02:29:36;5.27;;;4.77;;
6392;SDS011;3229;42.674;23.282;2023-04-24T02:32:04;5.83;;;4.50;;
6392;SDS011;3229;42.674;23.282;2023-04-24T02:34:31;5.47;;;4.50;;
6392;SDS011;3229;42.674;23.282;2023-04-24T02:36:58;7.77;;;4.60;;
6392;SDS011;3229;42.674;23.282;2023-04-24T02:39:25;5.07;;;4.37;;
6392;SDS011;3229;42.674;23.282;2023-04-24T02:41:52;5.17;;;4.67;;
6392;SDS011;3229;42.674;23.282;2023-04-24T02:44:18;8.27;;;4.70;;
6392;SDS011;3229;42.674;23.282;2023-04-24T02:46:46;5.60;;;4.20;;
6392;SDS011;3229;42.674;23.282;2023-04-24T02:49:14;5.70;;;4.97;;
6392;SDS011;3229;42.674;23.282;2023-04-24T02:51:41;4.80;;;4.30;;
6392;SDS011;3229;42.674;23.282;2023-04-24T02:54:08;9.47;;;4.77;;
6392;SDS011;3229;42.674;23.282;2023-04-24T02:56:35;8.13;;;4.80;;
6392;SDS011;3229;42.674;23.282;2023-04-24T02:59:02;5.67;;;4.83;;
6392;SDS011;3229;42.674;23.282;2023-04-24T03:01:29;5.53;;;5.00;;
6392;SDS011;3229;42.674;23.282;2023-04-24T03:03:56;4.70;;;4.20;;
6392;SDS011;3229;42.674;23.282;2023-04-24T03:06:24;7.60;;;4.70;;
6392;SDS011;3229;42.674;23.282;2023-04-24T03:08:52;6.67;;;4.77;;
6392;SDS011;3229;42.674;23.282;2023-04-24T03:11:18;5.23;;;4.73;;
6392;SDS011;3229;42.674;23.282;2023-04-24T03:13:45;7.37;;;4.93;;
6392;SDS011;3229;42.674;23.282;2023-04-24T03:16:12;7.17;;;4.53;;
6392;SDS011;3229;42.674;23.282;2023-04-24T03:18:39;5.30;;;4.80;;
6392;SDS011;3229;42.674;23.282;2023-04-24T03:21:05;5.87;;;4.40;;
6392;SDS011;3229;42.674;23.282;2023-04-24T03:23:34;6.77;;;4.90;;
6392;SDS011;3229;42.674;23.282;2023-04-24T03:26:00;6.13;;;4.83;;
6392;SDS011;3229;42.674;23.282;2023-04-24T03:28:27;5.30;;;4.80;;
6392;SDS011;3229;42.674;23.282;2023-04-24T03:30:54;5.97;;;4.90;;
6392;SDS011;3229;42.674;23.282;2023-04-24T03:33:21;6.33;;;4.70;;
6392;SDS011;3229;42.674;23.282;2023-04-24T03:35:47;5.97;;;5.00;;
6392;SDS011;3229;42.674;23.282;2023-04-24T03:38:14;5.53;;;4.73;;
6392;SDS011;3229;42.674;23.282;2023-04-24T03:40:42;10.27;;;4.97;;
6392;SDS011;3229;42.674;23.282;2023-04-24T03:43:09;7.67;;;4.87;;
6392;SDS011;3229;42.674;23.282;2023-04-24T03:45:36;8.50;;;5.17;;
6392;SDS011;3229;42.674;23.282;2023-04-24T03:48:02;6.90;;;5.13;;
6392;SDS011;3229;42.674;23.282;2023-04-24T03:50:29;14.60;;;5.87;;
6392;SDS011;3229;42.674;23.282;2023-04-24T03:52:56;7.63;;;5.00;;
6392;SDS011;3229;42.674;23.282;2023-04-24T03:55:23;8.27;;;5.00;;
6392;SDS011;3229;42.674;23.282;2023-04-24T03:57:51;5.50;;;4.80;;
6392;SDS011;3229;42.674;23.282;2023-04-24T04:00:18;5.83;;;4.90;;
6392;SDS011;3229;42.674;23.282;2023-04-24T04:02:46;7.83;;;5.23;;
6392;SDS011;3229;42.674;23.282;2023-04-24T04:05:12;5.83;;;5.23;;
6392;SDS011;3229;42.674;23.282;2023-04-24T04:07:39;5.60;;;5.00;;
6392;SDS011;3229;42.674;23.282;2023-04-24T04:10:06;9.40;;;5.73;;
6392;SDS011;3229;42.674;23.282;2023-04-24T04:12:34;7.40;;;5.27;;
6392;SDS011;3229;42.674;23.282;2023-04-24T04:15:02;8.63;;;5.37;;
6392;SDS011;3229;42.674;23.282;2023-04-24T04:17:29;6.33;;;5.60;;
6392;SDS011;3229;42.674;23.282;2023-04-24T04:19:56;8.40;;;4.87;;
6392;SDS011;3229;42.674;23.282;2023-04-24T04:22:23;7.50;;;5.83;;
6392;SDS011;3229;42.674;23.282;2023-04-24T04:24:50;5.63;;;4.80;;
6392;SDS011;3229;42.674;23.282;2023-04-24T04:27:16;8.10;;;5.60;;
6392;SDS011;3229;42.674;23.282;2023-04-24T04:29:43;12.60;;;5.30;;
6392;SDS011;3229;42.674;23.282;2023-04-24T04:32:12;7.30;;;5.00;;
6392;SDS011;3229;42.674;23.282;2023-04-24T04:34:39;8.23;;;4.00;;
6392;SDS011;3229;42.674;23.282;2023-04-24T04:37:05;7.90;;;4.00;;
6392;SDS011;3229;42.674;23.282;2023-04-24T04:39:32;8.77;;;4.03;;
6392;SDS011;3229;42.674;23.282;2023-04-24T04:41:59;8.07;;;5.63;;
6392;SDS011;3229;42.674;23.282;2023-04-24T04:44:26;9.47;;;5.10;;
6392;SDS011;3229;42.674;23.282;2023-04-24T04:46:53;8.20;;;5.37;;
6392;SDS011;3229;42.674;23.282;2023-04-24T04:49:22;8.37;;;5.30;;
6392;SDS011;3229;42.674;23.282;2023-04-24T04:51:49;7.97;;;4.67;;
6392;SDS011;3229;42.674;23.282;2023-04-24T04:54:17;7.57;;;5.10;;
6392;SDS011;3229;42.674;23.282;2023-04-24T04:56:43;8.53;;;4.83;;
6392;SDS011;3229;42.674;23.282;2023-04-24T04:59:10;6.20;;;4.50;;
6392;SDS011;3229;42.674;23.282;2023-04-24T05:01:38;8.53;;;5.67;;
6392;SDS011;3229;42.674;23.282;2023-04-24T05:04:05;6.47;;;4.80;;
6392;SDS011;3229;42.674;23.282;2023-04-24T05:06:33;7.93;;;5.30;;
6392;SDS011;3229;42.674;23.282;2023-04-24T05:09:00;10.53;;;5.70;;
6392;SDS011;3229;42.674;23.282;2023-04-24T05:11:28;8.97;;;5.20;;
6392;SDS011;3229;42.674;23.282;2023-04-24T05:13:55;5.67;;;4.47;;
6392;SDS011;3229;42.674;23.282;2023-04-24T05:16:22;6.97;;;4.90;;
6392;SDS011;3229;42.674;23.282;2023-04-24T05:18:49;12.43;;;4.90;;
6392;SDS011;3229;42.674;23.282;2023-04-24T05:21:15;5.93;;;4.00;;
6392;SDS011;3229;42.674;23.282;2023-04-24T05:23:44;6.60;;;4.53;;
6392;SDS011;3229;42.674;23.282;2023-04-24T05:26:10;5.13;;;4.07;;
6392;SDS011;3229;42.674;23.282;2023-04-24T05:28:37;7.13;;;4.30;;
6392;SDS011;3229;42.674;23.282;2023-04-24T05:31:04;13.47;;;4.77;;
6392;SDS011;3229;42.674;23.282;2023-04-24T05:33:31;5.73;;;4.50;;
6392;SDS011;3229;42.674;23.282;2023-04-24T05:35:58;4.63;;;4.23;;
6392;SDS011;3229;42.674;23.282;2023-04-24T05:38:25;6.37;;;4.17;;
6392;SDS011;3229;42.674;23.282;2023-04-24T05:40:53;7.63;;;4.60;;
6392;SDS011;3229;42.674;23.282;2023-04-24T05:43:20;5.00;;;4.07;;
6392;SDS011;3229;42.674;23.282;2023-04-24T05:45:48;11.40;;;4.10;;
6392;SDS011;3229;42.674;23.282;2023-04-24T05:48:16;6.93;;;4.13;;
6392;SDS011;3229;42.674;23.282;2023-04-24T05:50:43;11.67;;;4.23;;
6392;SDS011;3229;42.674;23.282;2023-04-24T05:53:09;4.30;;;3.70;;
6392;SDS011;3229;42.674;23.282;2023-04-24T05:55:36;9.43;;;4.17;;
6392;SDS011;3229;42.674;23.282;2023-04-24T05:58:04;4.37;;;3.97;;
6392;SDS011;3229;42.674;23.282;2023-04-24T06:00:31;4.60;;;3.60;;
6392;SDS011;3229;42.674;23.282;2023-04-24T06:02:59;4.87;;;4.37;;
6392;SDS011;3229;42.674;23.282;2023-04-24T06:05:26;6.37;;;3.43;;
6392;SDS011;3229;42.674;23.282;2023-04-24T06:07:52;5.80;;;3.70;;
6392;SDS011;3229;42.674;23.282;2023-04-24T06:10:20;5.47;;;3.90;;
6392;SDS011;3229;42.674;23.282;2023-04-24T06:12:46;6.03;;;3.72;;
6392;SDS011;3229;42.674;23.282;2023-04-24T06:15:15;6.28;;;3.53;;
6392;SDS011;3229;42.674;23.282;2023-04-24T06:17:41;8.38;;;4.20;;
6392;SDS011;3229;42.674;23.282;2023-04-24T06:20:09;6.85;;;3.72;;
6392;SDS011;3229;42.674;23.282;2023-04-24T06:22:37;4.43;;;3.72;;
6392;SDS011;3229;42.674;23.282;2023-04-24T06:25:05;5.93;;;4.18;;
6392;SDS011;3229;42.674;23.282;2023-04-24T06:27:32;5.70;;;3.63;;
6392;SDS011;3229;42.674;23.282;2023-04-24T06:29:59;11.05;;;4.00;;
6392;SDS011;3229;42.674;23.282;2023-04-24T06:32:27;10.73;;;4.15;;
6392;SDS011;3229;42.674;23.282;2023-04-24T06:34:55;6.88;;;4.65;;
6392;SDS011;3229;42.674;23.282;2023-04-24T06:37:22;13.00;;;4.93;;
6392;SDS011;3229;42.674;23.282;2023-04-24T06:39:49;11.18;;;5.40;;
6392;SDS011;3229;42.674;23.282;2023-04-24T06:42:16;12.88;;;5.63;;
6392;SDS011;3229;42.674;23.282;2023-04-24T06:44:46;5.93;;;5.03;;
6392;SDS011;3229;42.674;23.282;2023-04-24T06:47:12;7.75;;;4.78;;
6392;SDS011;3229;42.674;23.282;2023-04-24T06:49:41;12.48;;;4.75;;
6392;SDS011;3229;42.674;23.282;2023-04-24T06:52:08;5.38;;;4.03;;
6392;SDS011;3229;42.674;23.282;2023-04-24T06:54:36;7.90;;;5.22;;
6392;SDS011;3229;42.674;23.282;2023-04-24T06:57:08;6.15;;;4.40;;
6392;SDS011;3229;42.674;23.282;2023-04-24T06:59:37;11.52;;;4.40;;
6392;SDS011;3229;42.674;23.282;2023-04-24T07:02:04;7.80;;;4.55;;
6392;SDS011;3229;42.674;23.282;2023-04-24T07:04:31;5.32;;;4.30;;
6392;SDS011;3229;42.674;23.282;2023-04-24T07:07:00;8.45;;;4.55;;
6392;SDS011;3229;42.674;23.282;2023-04-24T07:09:27;6.88;;;4.53;;
6392;SDS011;3229;42.674;23.282;2023-04-24T07:11:54;5.28;;;4.28;;
6392;SDS011;3229;42.674;23.282;2023-04-24T07:14:22;6.50;;;4.47;;
6392;SDS011;3229;42.674;23.282;2023-04-24T07:16:49;5.85;;;4.30;;
6392;SDS011;3229;42.674;23.282;2023-04-24T07:19:16;7.55;;;4.38;;
6392;SDS011;3229;42.674;23.282;2023-04-24T07:21:43;7.25;;;4.35;;
6392;SDS011;3229;42.674;23.282;2023-04-24T07:24:11;6.20;;;4.00;;
6392;SDS011;3229;42.674;23.282;2023-04-24T07:26:38;4.43;;;3.72;;
6392;SDS011;3229;42.674;23.282;2023-04-24T07:29:05;6.32;;;4.18;;
6392;SDS011;3229;42.674;23.282;2023-04-24T07:31:32;10.65;;;4.55;;
6392;SDS011;3229;42.674;23.282;2023-04-24T07:33:59;5.72;;;4.68;;
6392;SDS011;3229;42.674;23.282;2023-04-24T07:36:25;6.57;;;4.15;;
6392;SDS011;3229;42.674;23.282;2023-04-24T07:38:53;5.43;;;4.40;;
6392;SDS011;3229;42.674;23.282;2023-04-24T07:41:21;6.15;;;3.75;;
6392;SDS011;3229;42.674;23.282;2023-04-24T07:43:49;5.78;;;3.58;;
6392;SDS011;3229;42.674;23.282;2023-04-24T07:46:16;4.63;;;4.20;;
6392;SDS011;3229;42.674;23.282;2023-04-24T07:48:43;4.85;;;3.92;;
6392;SDS011;3229;42.674;23.282;2023-04-24T07:51:11;5.05;;;4.22;;
6392;SDS011;3229;42.674;23.282;2023-04-24T07:53:38;7.90;;;4.15;;
6392;SDS011;3229;42.674;23.282;2023-04-24T07:56:05;4.20;;;3.85;;
6392;SDS011;3229;42.674;23.282;2023-04-24T07:58:33;4.90;;;4.40;;
6392;SDS011;3229;42.674;23.282;2023-04-24T08:01:00;5.25;;;3.67;;
6392;SDS011;3229;42.674;23.282;2023-04-24T08:03:27;6.13;;;4.70;;
6392;SDS011;3229;42.674;23.282;2023-04-24T08:05:54;7.18;;;3.95;;
6392;SDS011;3229;42.674;23.282;2023-04-24T08:08:21;4.82;;;3.72;;
6392;SDS011;3229;42.674;23.282;2023-04-24T08:10:49;5.03;;;3.88;;
6392;SDS011;3229;42.674;23.282;2023-04-24T08:13:16;5.72;;;4.10;;
6392;SDS011;3229;42.674;23.282;2023-04-24T08:15:44;4.68;;;4.20;;
6392;SDS011;3229;42.674;23.282;2023-04-24T08:18:11;5.07;;;3.70;;
6392;SDS011;3229;42.674;23.282;2023-04-24T08:20:38;5.45;;;3.67;;
6392;SDS011;3229;42.674;23.282;2023-04-24T08:23:05;6.63;;;4.72;;
6392;SDS011;3229;42.674;23.282;2023-04-24T08:25:32;4.35;;;3.85;;
6392;SDS011;3229;42.674;23.282;2023-04-24T08:28:00;4.53;;;4.13;;
6392;SDS011;3229;42.674;23.282;2023-04-24T08:30:29;7.18;;;3.58;;
6392;SDS011;3229;42.674;23.282;2023-04-24T08:32:57;7.13;;;4.70;;
6392;SDS011;3229;42.674;23.282;2023-04-24T08:35:24;8.35;;;3.95;;
6392;SDS011;3229;42.674;23.282;2023-04-24T08:37:51;5.28;;;3.85;;
6392;SDS011;3229;42.674;23.282;2023-04-24T08:40:18;4.32;;;3.92;;
6392;SDS011;3229;42.674;23.282;2023-04-24T08:42:54;10.27;;;4.07;;
6392;SDS011;3229;42.674;23.282;2023-04-24T08:45:22;3.90;;;3.50;;
6392;SDS011;3229;42.674;23.282;2023-04-24T08:47:51;3.88;;;3.50;;
6392;SDS011;3229;42.674;23.282;2023-04-24T08:50:20;7.55;;;4.55;;
6392;SDS011;3229;42.674;23.282;2023-04-24T08:52:47;6.60;;;4.15;;
6392;SDS011;3229;42.674;23.282;2023-04-24T08:55:15;4.30;;;3.95;;
6392;SDS011;3229;42.674;23.282;2023-04-24T08:57:43;4.22;;;3.78;;
6392;SDS011;3229;42.674;23.282;2023-04-24T09:00:13;4.15;;;3.80;;
6392;SDS011;3229;42.674;23.282;2023-04-24T09:02:41;4.05;;;3.53;;
6392;SDS011;3229;42.674;23.282;2023-04-24T09:05:09;3.85;;;3.40;;
6392;SDS011;3229;42.674;23.282;2023-04-24T09:07:38;5.53;;;3.85;;
6392;SDS011;3229;42.674;23.282;2023-04-24T09:10:09;4.10;;;3.80;;
6392;SDS011;3229;42.674;23.282;2023-04-24T09:12:36;4.20;;;3.80;;
6392;SDS011;3229;42.674;23.282;2023-04-24T09:15:03;3.95;;;3.55;;
6392;SDS011;3229;42.674;23.282;2023-04-24T09:17:33;7.13;;;4.13;;
6392;SDS011;3229;42.674;23.282;2023-04-24T09:20:00;4.85;;;3.75;;
6392;SDS011;3229;42.674;23.282;2023-04-24T09:22:29;5.60;;;3.97;;
6392;SDS011;3229;42.674;23.282;2023-04-24T09:25:01;5.30;;;4.25;;
6392;SDS011;3229;42.674;23.282;2023-04-24T09:27:30;6.88;;;3.80;;
6392;SDS011;3229;42.674;23.282;2023-04-24T09:29:57;5.28;;;4.10;;
6392;SDS011;3229;42.674;23.282;2023-04-24T09:32:24;5.20;;;3.38;;
6392;SDS011;3229;42.674;23.282;2023-04-24T09:35:05;4.38;;;3.60;;
6392;SDS011;3229;42.674;23.282;2023-04-24T09:37:36;5.75;;;3.47;;
6392;SDS011;3229;42.674;23.282;2023-04-24T09:40:08;4.53;;;3.60;;
6392;SDS011;3229;42.674;23.282;2023-04-24T09:42:37;5.57;;;3.83;;
6392;SDS011;3229;42.674;23.282;2023-04-24T09:45:04;4.55;;;3.55;;
6392;SDS011;3229;42.674;23.282;2023-04-24T09:47:36;3.75;;;3.13;;
6392;SDS011;3229;42.674;23.282;2023-04-24T09:50:09;4.93;;;3.95;;
6392;SDS011;3229;42.674;23.282;2023-04-24T09:52:39;5.07;;;3.45;;
6392;SDS011;3229;42.674;23.282;2023-04-24T09:55:11;6.80;;;3.50;;
6392;SDS011;3229;42.674;23.282;2023-04-24T09:57:50;4.18;;;3.60;;
6392;SDS011;3229;42.674;23.282;2023-04-24T10:00:18;4.53;;;4.13;;
6392;SDS011;3229;42.674;23.282;2023-04-24T10:02:49;6.07;;;3.78;;
6392;SDS011;3229;42.674;23.282;2023-04-24T10:05:17;7.22;;;4.07;;
6392;SDS011;3229;42.674;23.282;2023-04-24T10:07:44;4.30;;;3.63;;
6392;SDS011;3229;42.674;23.282;2023-04-24T10:10:13;6.00;;;3.85;;
6392;SDS011;3229;42.674;23.282;2023-04-24T10:12:39;6.15;;;4.10;;
6392;SDS011;3229;42.674;23.282;2023-04-24T10:15:07;5.78;;;3.92;;
6392;SDS011;3229;42.674;23.282;2023-04-24T10:17:38;5.97;;;4.00;;
6392;SDS011;3229;42.674;23.282;2023-04-24T10:20:07;5.00;;;3.20;;
6392;SDS011;3229;42.674;23.282;2023-04-24T10:22:34;3.85;;;3.55;;
6392;SDS011;3229;42.674;23.282;2023-04-24T10:25:03;3.90;;;3.60;;
6392;SDS011;3229;42.674;23.282;2023-04-24T10:27:33;4.95;;;3.65;;
6392;SDS011;3229;42.674;23.282;2023-04-24T10:30:01;8.15;;;3.88;;
6392;SDS011;3229;42.674;23.282;2023-04-24T10:32:29;6.75;;;3.65;;
6392;SDS011;3229;42.674;23.282;2023-04-24T10:34:56;4.38;;;3.20;;
6392;SDS011;3229;42.674;23.282;2023-04-24T10:37:24;6.47;;;4.03;;
6392;SDS011;3229;42.674;23.282;2023-04-24T10:39:53;4.55;;;3.50;;
6392;SDS011;3229;42.674;23.282;2023-04-24T10:42:22;5.78;;;3.55;;
6392;SDS011;3229;42.674;23.282;2023-04-24T10:44:50;3.30;;;3.10;;
6392;SDS011;3229;42.674;23.282;2023-04-24T10:47:17;5.55;;;3.83;;
6392;SDS011;3229;42.674;23.282;2023-04-24T10:49:43;4.22;;;3.38;;
6392;SDS011;3229;42.674;23.282;2023-04-24T10:52:10;5.95;;;3.72;;
6392;SDS011;3229;42.674;23.282;2023-04-24T10:54:41;3.30;;;3.00;;
6392;SDS011;3229;42.674;23.282;2023-04-24T10:57:27;4.38;;;3.22;;
6392;SDS011;3229;42.674;23.282;2023-04-24T11:00:16;3.95;;;3.22;;
6392;SDS011;3229;42.674;23.282;2023-04-24T11:02:46;5.25;;;3.65;;
6392;SDS011;3229;42.674;23.282;2023-04-24T11:05:18;5.25;;;3.60;;
6392;SDS011;3229;42.674;23.282;2023-04-24T11:10:38;4.68;;;3.38;;
6392;SDS011;3229;42.674;23.282;2023-04-24T11:13:06;3.10;;;2.85;;
6392;SDS011;3229;42.674;23.282;2023-04-24T11:15:35;6.85;;;3.42;;
6392;SDS011;3229;42.674;23.282;2023-04-24T11:18:02;3.38;;;3.08;;
6392;SDS011;3229;42.674;23.282;2023-04-24T11:20:29;3.60;;;3.25;;
6392;SDS011;3229;42.674;23.282;2023-04-24T11:22:58;4.28;;;3.20;;
6392;SDS011;3229;42.674;23.282;2023-04-24T11:25:31;3.47;;;3.17;;
6392;SDS011;3229;42.674;23.282;2023-04-24T11:28:02;4.35;;;3.33;;
6392;SDS011;3229;42.674;23.282;2023-04-24T11:30:31;3.38;;;3.08;;
6392;SDS011;3229;42.674;23.282;2023-04-24T11:33:04;3.67;;;3.03;;
6392;SDS011;3229;42.674;23.282;2023-04-24T11:35:34;3.63;;;3.13;;
6392;SDS011;3229;42.674;23.282;2023-04-24T11:38:02;4.53;;;3.28;;
6392;SDS011;3229;42.674;23.282;2023-04-24T11:40:30;3.08;;;2.88;;
6392;SDS011;3229;42.674;23.282;2023-04-24T11:42:59;3.30;;;3.00;;
6392;SDS011;3229;42.674;23.282;2023-04-24T11:45:27;3.95;;;3.50;;
6392;SDS011;3229;42.674;23.282;2023-04-24T11:47:55;3.65;;;3.33;;
6392;SDS011;3229;42.674;23.282;2023-04-24T11:50:24;5.70;;;3.10;;
6392;SDS011;3229;42.674;23.282;2023-04-24T11:52:52;4.85;;;3.20;;
6392;SDS011;3229;42.674;23.282;2023-04-24T11:55:24;2.90;;;2.70;;
6392;SDS011;3229;42.674;23.282;2023-04-24T11:57:53;6.57;;;3.17;;
6392;SDS011;3229;42.674;23.282;2023-04-24T12:00:22;3.28;;;2.90;;
6392;SDS011;3229;42.674;23.282;2023-04-24T12:02:50;3.88;;;2.88;;
6392;SDS011;3229;42.674;23.282;2023-04-24T12:05:20;3.30;;;3.00;;
6392;SDS011;3229;42.674;23.282;2023-04-24T12:07:50;4.10;;;3.00;;
6392;SDS011;3229;42.674;23.282;2023-04-24T12:10:19;3.80;;;3.40;;
6392;SDS011;3229;42.674;23.282;2023-04-24T12:12:47;5.53;;;2.75;;
6392;SDS011;3229;42.674;23.282;2023-04-24T12:15:15;3.08;;;2.83;;
6392;SDS011;3229;42.674;23.282;2023-04-24T12:17:43;4.63;;;3.17;;
6392;SDS011;3229;42.674;23.282;2023-04-24T12:20:10;5.18;;;3.05;;
6392;SDS011;3229;42.674;23.282;2023-04-24T12:22:45;5.53;;;3.60;;
6392;SDS011;3229;42.674;23.282;2023-04-24T12:25:14;3.75;;;3.13;;
6392;SDS011;3229;42.674;23.282;2023-04-24T12:27:43;3.08;;;2.65;;
6392;SDS011;3229;42.674;23.282;2023-04-24T12:30:11;3.45;;;2.90;;
6392;SDS011;3229;42.674;23.282;2023-04-24T12:32:43;4.43;;;2.88;;
6392;SDS011;3229;42.674;23.282;2023-04-24T12:35:11;3.00;;;2.70;;
6392;SDS011;3229;42.674;23.282;2023-04-24T12:37:38;4.80;;;2.92;;
6392;SDS011;3229;42.674;23.282;2023-04-24T12:40:09;3.20;;;2.90;;
6392;SDS011;3229;42.674;23.282;2023-04-24T12:42:42;3.10;;;2.78;;
6392;SDS011;3229;42.674;23.282;2023-04-24T12:45:10;5.55;;;3.00;;
6392;SDS011;3229;42.674;23.282;2023-04-24T12:47:38;3.85;;;2.95;;
6392;SDS011;3229;42.674;23.282;2023-04-24T12:50:08;3.10;;;2.83;;
6392;SDS011;3229;42.674;23.282;2023-04-24T12:52:35;5.45;;;3.15;;
6392;SDS011;3229;42.674;23.282;2023-04-24T12:55:04;3.97;;;2.70;;
6392;SDS011;3229;42.674;23.282;2023-04-24T12:57:33;6.88;;;3.17;;
6392;SDS011;3229;42.674;23.282;2023-04-24T13:00:03;3.15;;;2.85;;
6392;SDS011;3229;42.674;23.282;2023-04-24T13:02:32;3.38;;;2.80;;
6392;SDS011;3229;42.674;23.282;2023-04-24T13:05:00;3.30;;;2.70;;
6392;SDS011;3229;42.674;23.282;2023-04-24T13:07:27;5.35;;;2.92;;
6392;SDS011;3229;42.674;23.282;2023-04-24T13:09:55;4.55;;;2.90;;
6392;SDS011;3229;42.674;23.282;2023-04-24T13:12:22;5.55;;;3.20;;
6392;SDS011;3229;42.674;23.282;2023-04-24T13:14:50;4.13;;;2.97;;
6392;SDS011;3229;42.674;23.282;2023-04-24T13:17:18;4.75;;;3.28;;
6392;SDS011;3229;42.674;23.282;2023-04-24T13:19:45;3.47;;;3.03;;
6392;SDS011;3229;42.674;23.282;2023-04-24T13:22:12;3.13;;;2.88;;
6392;SDS011;3229;42.674;23.282;2023-04-24T13:24:39;2.90;;;2.70;;
6392;SDS011;3229;42.674;23.282;2023-04-24T13:27:06;3.30;;;2.88;;
6392;SDS011;3229;42.674;23.282;2023-04-24T13:29:34;4.10;;;2.55;;
6392;SDS011;3229;42.674;23.282;2023-04-24T13:32:02;2.80;;;2.60;;
6392;SDS011;3229;42.674;23.282;2023-04-24T13:34:30;2.92;;;2.72;;
6392;SDS011;3229;42.674;23.282;2023-04-24T13:36:59;3.65;;;3.30;;
6392;SDS011;3229;42.674;23.282;2023-04-24T13:39:27;3.00;;;2.75;;
6392;SDS011;3229;42.674;23.282;2023-04-24T13:41:54;3.13;;;2.85;;
6392;SDS011;3229;42.674;23.282;2023-04-24T13:44:21;3.38;;;3.08;;
6392;SDS011;3229;42.674;23.282;2023-04-24T13:46:49;2.80;;;2.60;;
6392;SDS011;3229;42.674;23.282;2023-04-24T13:49:19;2.90;;;2.70;;
6392;SDS011;3229;42.674;23.282;2023-04-24T13:51:48;2.85;;;2.65;;
6392;SDS011;3229;42.674;23.282;2023-04-24T13:54:15;3.13;;;2.83;;
6392;SDS011;3229;42.674;23.282;2023-04-24T13:56:42;2.83;;;2.63;;
6392;SDS011;3229;42.674;23.282;2023-04-24T13:59:09;2.70;;;2.45;;
6392;SDS011;3229;42.674;23.282;2023-04-24T14:01:38;3.35;;;3.08;;
6392;SDS011;3229;42.674;23.282;2023-04-24T14:04:05;3.22;;;2.70;;
6392;SDS011;3229;42.674;23.282;2023-04-24T14:06:32;3.22;;;2.95;;
6392;SDS011;3229;42.674;23.282;2023-04-24T14:09:00;3.38;;;2.67;;
6392;SDS011;3229;42.674;23.282;2023-04-24T14:11:27;4.53;;;2.95;;
6392;SDS011;3229;42.674;23.282;2023-04-24T14:13:55;3.30;;;3.05;;
6392;SDS011;3229;42.674;23.282;2023-04-24T14:16:22;2.83;;;2.60;;
6392;SDS011;3229;42.674;23.282;2023-04-24T14:18:49;3.53;;;2.80;;
6392;SDS011;3229;42.674;23.282;2023-04-24T14:21:16;3.30;;;2.67;;
6392;SDS011;3229;42.674;23.282;2023-04-24T14:23:43;3.63;;;2.60;;
6392;SDS011;3229;42.674;23.282;2023-04-24T14:26:11;2.88;;;2.67;;
6392;SDS011;3229;42.674;23.282;2023-04-24T14:28:38;4.03;;;2.78;;
6392;SDS011;3229;42.674;23.282;2023-04-24T14:31:05;3.28;;;2.65;;
6392;SDS011;3229;42.674;23.282;2023-04-24T14:33:33;2.67;;;2.47;;
6392;SDS011;3229;42.674;23.282;2023-04-24T14:36:00;2.67;;;2.42;;
6392;SDS011;3229;42.674;23.282;2023-04-24T14:38:30;2.45;;;2.25;;
6392;SDS011;3229;42.674;23.282;2023-04-24T14:40:57;3.95;;;2.55;;
6392;SDS011;3229;42.674;23.282;2023-04-24T14:43:25;3.25;;;2.88;;
6392;SDS011;3229;42.674;23.282;2023-04-24T14:45:52;3.78;;;3.08;;
6392;SDS011;3229;42.674;23.282;2023-04-24T14:48:19;3.28;;;2.97;;
6392;SDS011;3229;42.674;23.282;2023-04-24T14:50:46;3.50;;;3.15;;
6392;SDS011;3229;42.674;23.282;2023-04-24T14:53:14;3.40;;;3.10;;
6392;SDS011;3229;42.674;23.282;2023-04-24T14:55:41;5.60;;;3.55;;
6392;SDS011;3229;42.674;23.282;2023-04-24T14:58:08;6.03;;;2.90;;
6392;SDS011;3229;42.674;23.282;2023-04-24T15:00:36;3.40;;;3.10;;
6392;SDS011;3229;42.674;23.282;2023-04-24T15:03:03;3.08;;;2.78;;
6392;SDS011;3229;42.674;23.282;2023-04-24T15:05:30;3.10;;;2.80;;
6392;SDS011;3229;42.674;23.282;2023-04-24T15:07:56;6.43;;;2.33;;